Figridge, Texas
Current Conditions -  °F | °C
As of 7:55 AM on Thursday 30 Oct 2014 (Local Time) from KBMT Reporting Station
Clear Clear  
Wind Chill: 52°   Ceiling: Unl
Heat Index: 52°   Visibility: 10mi
Dew Point: 48°   Wind: 5mph
Humidity: 86%   Direction: 30°NNE
Pressure: 30.14"   Gusts: NA
Location:  29.7905°N, 94.3844°W
Report Text: KBMT 301255Z AUTO 03004KT 10SM CLR 11/09 A3014 RMK AO2 T01120090
Loading
Personal Weather Stations






























Interactive Weather Map
Tropical Storm Tracking
New forecast layout! Learn more

10-Day Weather Forecast

Advertisements
Track Severe Weather on mobile